createdAt,value
2022-09-07T00:04:00.169Z,99.5
2022-09-07T00:09:06.267Z,99.5
2022-09-07T00:14:12.359Z,99.5
2022-09-07T00:19:18.440Z,99.5
2022-09-07T00:24:24.536Z,99.5
2022-09-07T00:29:30.631Z,99.5
2022-09-07T00:34:36.735Z,99.5
2022-09-07T00:39:42.825Z,99.5
2022-09-07T00:44:47.937Z,99.5
2022-09-07T00:49:54.025Z,99.5
2022-09-07T00:55:00.125Z,99.5
2022-09-07T01:00:06.209Z,99.5
2022-09-07T01:05:12.323Z,99.5
2022-09-07T01:10:18.411Z,99.5
2022-09-07T01:15:24.501Z,99.5
2022-09-07T01:20:30.607Z,99.5
2022-09-07T01:25:36.692Z,99.5
2022-09-07T01:30:42.798Z,99.5
2022-09-07T01:35:48.887Z,99.5
2022-09-07T01:40:54.968Z,99.5
2022-09-07T01:46:01.064Z,99.5
2022-09-07T01:51:06.191Z,99.5
2022-09-07T01:56:12.283Z,99.5
2022-09-07T02:01:18.367Z,99.5
2022-09-07T02:06:24.478Z,99.5
2022-09-07T02:11:30.551Z,99.5
2022-09-07T02:16:36.657Z,99.5
2022-09-07T02:21:42.746Z,99.5
2022-09-07T02:26:48.829Z,99.5
2022-09-07T02:31:54.932Z,99.5
2022-09-07T02:37:01.039Z,99.5
2022-09-07T02:42:07.128Z,99.5
2022-09-07T02:47:13.221Z,99.5
2022-09-07T02:52:19.329Z,99.5
2022-09-07T02:57:24.419Z,99.5
2022-09-07T03:02:30.505Z,99.5
2022-09-07T03:07:36.602Z,99.5
2022-09-07T03:12:42.701Z,99.5
2022-09-07T03:17:48.809Z,99.5
2022-09-07T03:22:54.894Z,99.5
2022-09-07T03:28:00.982Z,99.5
2022-09-07T03:33:07.110Z,99.5
2022-09-07T03:38:13.176Z,99.5
2022-09-07T03:43:19.268Z,99.5
2022-09-07T03:48:25.363Z,99.5
2022-09-07T03:53:31.455Z,99.5
2022-09-07T03:58:37.561Z,99.5
2022-09-07T04:03:42.656Z,99.5
2022-09-07T04:08:48.765Z,99.5
2022-09-07T04:13:54.844Z,99.5
2022-09-07T04:19:00.942Z,99.5
2022-09-07T04:24:07.047Z,99.5
2022-09-07T04:29:13.139Z,99.5
2022-09-07T04:34:19.243Z,99.5
2022-09-07T04:39:25.363Z,99.5
2022-09-07T04:44:31.420Z,99.5
2022-09-07T04:49:37.514Z,99.5
2022-09-07T04:54:43.614Z,99.5
2022-09-07T04:59:49.696Z,99.5
2022-09-07T05:04:55.799Z,99.5
2022-09-07T05:10:00.919Z,99.5
2022-09-07T05:15:06.997Z,99.5
2022-09-07T05:20:13.109Z,99.5
2022-09-07T05:25:19.188Z,99.5
2022-09-07T05:30:25.280Z,99.5
2022-09-07T05:35:31.367Z,99.5
2022-09-07T05:40:37.469Z,99.5
2022-09-07T05:45:43.570Z,99.5
2022-09-07T05:50:49.668Z,99.5
2022-09-07T05:55:55.752Z,99.5
2022-09-07T06:01:01.844Z,99.5
2022-09-07T06:06:07.947Z,99.5
2022-09-07T06:11:14.053Z,99
2022-09-07T06:16:19.152Z,98
2022-09-07T06:21:25.252Z,97
2022-09-07T06:26:31.354Z,96
2022-09-07T06:31:37.442Z,95
2022-09-07T06:36:43.542Z,94.5
2022-09-07T06:41:49.621Z,93.5
2022-09-07T06:46:55.730Z,93.5
2022-09-07T06:52:01.810Z,93.5
2022-09-07T06:57:07.895Z,93
2022-09-07T07:02:13.998Z,92
2022-09-07T07:07:20.094Z,91
2022-09-07T07:17:32.287Z,87
2022-09-07T07:22:37.395Z,86.5
2022-09-07T07:27:43.494Z,85
2022-09-07T07:32:49.587Z,85.5
2022-09-07T07:37:55.691Z,84
2022-09-07T07:43:01.757Z,84
2022-09-07T07:48:07.868Z,83
2022-09-07T07:53:12.977Z,85.5
2022-09-07T07:58:19.065Z,82
2022-09-07T08:03:25.158Z,82
2022-09-07T08:08:31.248Z,80.5
2022-09-07T08:13:37.354Z,83
2022-09-07T08:18:43.440Z,80
2022-09-07T08:23:49.525Z,82.5
2022-09-07T08:28:55.643Z,82
2022-09-07T08:34:01.724Z,80
2022-09-07T08:39:07.816Z,78
2022-09-07T08:44:13.922Z,79.5
2022-09-07T08:49:20.058Z,78
2022-09-07T08:54:26.107Z,77.5
2022-09-07T08:59:31.215Z,77
2022-09-07T09:04:37.410Z,76.5
2022-09-07T09:09:43.411Z,74.5
2022-09-07T09:14:49.553Z,71.5
2022-09-07T09:19:55.591Z,69.5
2022-09-07T09:25:01.702Z,71
2022-09-07T09:30:07.775Z,69
2022-09-07T09:35:13.886Z,69
2022-09-07T09:40:19.986Z,70.5
2022-09-07T09:45:26.142Z,65
2022-09-07T09:50:32.162Z,62
2022-09-07T09:55:38.250Z,58.5
2022-09-07T10:00:44.362Z,60
2022-09-07T10:05:49.502Z,61
2022-09-07T10:10:55.575Z,58
2022-09-07T10:16:01.665Z,57.5
2022-09-07T10:21:07.758Z,52
2022-09-07T10:26:13.839Z,50
2022-09-07T10:31:19.927Z,48.5
2022-09-07T10:36:26.064Z,44
2022-09-07T10:41:32.134Z,43
2022-09-07T10:46:38.237Z,43.5
2022-09-07T10:51:44.313Z,46.5
2022-09-07T10:56:50.425Z,46.5
2022-09-07T11:01:56.513Z,44
2022-09-07T11:07:02.601Z,42
2022-09-07T11:12:07.734Z,42
2022-09-07T11:17:13.815Z,41
2022-09-07T11:22:19.905Z,42.5
2022-09-07T11:27:26.011Z,39
2022-09-07T11:32:32.142Z,37
2022-09-07T11:37:38.240Z,38.5
2022-09-07T11:42:44.333Z,38.5
2022-09-07T11:47:50.427Z,41
2022-09-07T11:52:56.544Z,40.5
2022-09-07T11:58:02.620Z,41.5
2022-09-07T12:03:08.777Z,45.5
2022-09-07T12:08:14.819Z,48
2022-09-07T12:13:20.946Z,49.5
2022-09-07T12:18:26.056Z,52
2022-09-07T12:23:32.157Z,52.5
2022-09-07T12:28:38.205Z,51.5
2022-09-07T12:33:44.320Z,52
2022-09-07T12:38:50.405Z,53.5
2022-09-07T12:43:56.526Z,53
2022-09-07T12:49:02.589Z,52
2022-09-07T12:54:08.727Z,51.5
2022-09-07T12:59:14.790Z,50
2022-09-07T13:04:20.894Z,50
2022-09-07T13:09:27.000Z,49
2022-09-07T13:14:33.093Z,49
2022-09-07T13:19:39.214Z,50.5
2022-09-07T13:24:44.316Z,50.5
2022-09-07T13:29:50.354Z,50
2022-09-07T13:34:56.457Z,50
2022-09-07T13:40:02.542Z,50
2022-09-07T13:45:08.633Z,50
2022-09-07T13:50:14.751Z,49.5
2022-09-07T13:55:20.843Z,49.5
2022-09-07T14:00:26.939Z,49.5
2022-09-07T14:05:33.009Z,51
2022-09-07T14:10:39.141Z,49
2022-09-07T14:15:45.273Z,52
2022-09-07T14:20:51.338Z,50.5
2022-09-07T14:25:57.437Z,49.5
2022-09-07T14:31:02.529Z,50
2022-09-07T14:36:08.646Z,51
2022-09-07T14:41:14.734Z,50
2022-09-07T14:46:20.833Z,50.5
2022-09-07T14:51:26.926Z,51.5
2022-09-07T14:56:33.076Z,50
2022-09-07T15:01:39.108Z,48
2022-09-07T15:06:45.202Z,49
2022-09-07T15:11:51.303Z,49.5
2022-09-07T15:16:57.381Z,48
2022-09-07T15:22:03.480Z,46.5
2022-09-07T15:27:09.574Z,49
2022-09-07T15:32:15.684Z,49.5
2022-09-07T15:37:20.762Z,47.5
2022-09-07T15:42:26.864Z,49.5
2022-09-07T15:47:32.956Z,49
2022-09-07T15:52:39.055Z,48.5
2022-09-07T15:57:45.152Z,48.5
2022-09-07T16:02:51.251Z,48.5
2022-09-07T16:07:57.342Z,52
2022-09-07T16:13:03.463Z,48.5
2022-09-07T16:18:09.532Z,51.5
2022-09-07T16:23:15.637Z,51
2022-09-07T16:28:21.742Z,51.5
2022-09-07T16:33:27.820Z,52.5
2022-09-07T16:38:33.910Z,54.5
2022-09-07T16:43:39.050Z,55.5
2022-09-07T16:48:45.119Z,57
2022-09-07T16:53:51.243Z,57.5
2022-09-07T16:58:57.308Z,64.5
2022-09-07T17:04:03.453Z,61.5
2022-09-07T17:09:09.540Z,66
2022-09-07T17:14:15.592Z,67.5
2022-09-07T17:19:21.724Z,65
2022-09-07T17:24:27.823Z,66
2022-09-07T17:29:33.872Z,64
2022-09-07T17:34:39.962Z,64
2022-09-07T17:39:46.122Z,64.5
2022-09-07T17:44:52.144Z,65
2022-09-07T17:49:57.254Z,65.5
2022-09-07T17:55:03.347Z,66
2022-09-07T18:00:09.460Z,66.5
2022-09-07T18:05:15.556Z,68
2022-09-07T18:10:21.641Z,67
2022-09-07T18:15:27.746Z,68.5
2022-09-07T18:20:33.872Z,69.5
2022-09-07T18:25:39.920Z,70
2022-09-07T18:30:46.017Z,70.5
2022-09-07T18:35:52.178Z,71.5
2022-09-07T18:40:58.204Z,72.5
2022-09-07T18:46:04.318Z,73.5
2022-09-07T18:51:10.401Z,74.5
2022-09-07T18:56:15.489Z,75.5
2022-09-07T19:01:21.587Z,76
2022-09-07T19:06:27.699Z,77
2022-09-07T19:11:33.772Z,77.5
2022-09-07T19:16:39.875Z,77
2022-09-07T19:21:45.969Z,76
2022-09-07T19:26:52.067Z,75.5
2022-09-07T19:31:58.154Z,75
2022-09-07T19:37:04.277Z,75
2022-09-07T19:42:10.348Z,74
2022-09-07T19:47:16.430Z,72
2022-09-07T19:52:22.608Z,70.5
2022-09-07T19:57:28.628Z,71
2022-09-07T20:02:33.754Z,71
2022-09-07T20:07:39.858Z,72
2022-09-07T20:12:45.941Z,73
2022-09-07T20:17:52.019Z,73.5
2022-09-07T20:22:58.120Z,72
2022-09-07T20:28:04.316Z,73.5
2022-09-07T20:33:10.303Z,73.5
2022-09-07T20:38:16.394Z,75
2022-09-07T20:43:22.491Z,77
2022-09-07T20:48:28.599Z,78.5
2022-09-07T20:53:34.691Z,80
2022-09-07T20:58:40.816Z,80.5
2022-09-07T21:03:46.873Z,80.5
2022-09-07T21:08:51.964Z,81.5
2022-09-07T21:13:58.077Z,82.5
2022-09-07T21:19:04.174Z,83
2022-09-07T21:24:10.259Z,83.5
2022-09-07T21:29:16.352Z,84
2022-09-07T21:34:22.453Z,84
2022-09-07T21:39:28.571Z,84.5
2022-09-07T21:44:34.647Z,85.5
2022-09-07T21:49:40.784Z,86
2022-09-07T21:54:46.816Z,86.5
2022-09-07T21:59:52.913Z,87
2022-09-07T22:04:59.040Z,88
2022-09-07T22:10:05.146Z,88
2022-09-07T22:15:10.242Z,88.5
2022-09-07T22:20:16.311Z,88.5
2022-09-07T22:25:22.407Z,88.5
2022-09-07T22:30:28.576Z,89
2022-09-07T22:35:34.599Z,89
2022-09-07T22:40:40.725Z,90
2022-09-07T22:45:46.830Z,90
2022-09-07T22:50:52.885Z,91.5
2022-09-07T22:55:58.999Z,92
2022-09-07T23:01:05.125Z,91.5
2022-09-07T23:06:11.167Z,91.5
2022-09-07T23:11:17.280Z,91.5
2022-09-07T23:16:23.393Z,91
2022-09-07T23:21:28.477Z,89.5
2022-09-07T23:26:34.583Z,88
2022-09-07T23:31:40.649Z,87.5
2022-09-07T23:36:46.735Z,87.5
2022-09-07T23:41:52.863Z,88
2022-09-07T23:46:58.952Z,88
2022-09-07T23:52:05.025Z,89.5
2022-09-07T23:57:11.152Z,90.5
